Time;durP1;ratioP1;P1;durP2;ratioP2;P2;SDS_P1;SDS_P2;PMS_P1;PMS_P2;Temp;Humidity;BMP_temperature;BMP_pressure;BME280_temperature;BME280_humidity;BME280_pressure;Samples;Min_cycle;Max_cycle;Signal;HPM_P1;HPM_P2
2021/12/08 00:01:32;;;;;;;2.20;2.00;;;4.40;42.10;;;;;;10390036;28;20230;-69
2021/12/08 00:06:37;;;;;;;2.23;2.03;;;4.40;41.90;;;;;;10389338;28;20505;-68
2021/12/08 00:17:00;;;;;;;2.47;1.70;;;4.40;41.90;;;;;;10392077;28;20771;-69
2021/12/08 00:22:05;;;;;;;2.90;1.90;;;4.40;42.00;;;;;;10389466;28;20235;-68
2021/12/08 00:27:09;;;;;;;2.00;1.80;;;4.40;41.60;;;;;;10391446;28;20235;-68
2021/12/08 00:32:12;;;;;;;1.90;1.60;;;4.40;41.70;;;;;;10387577;28;20225;-68
2021/12/08 00:37:16;;;;;;;2.20;2.00;;;4.40;41.80;;;;;;10390067;28;20230;-69
2021/12/08 00:42:20;;;;;;;2.00;1.83;;;4.40;41.50;;;;;;10394874;28;20240;-68
2021/12/08 00:47:23;;;;;;;2.50;2.00;;;4.40;41.40;;;;;;10383351;28;20237;-68
2021/12/08 00:52:29;;;;;;;2.17;1.67;;;4.50;41.70;;;;;;10383739;28;20239;-68
2021/12/08 00:57:32;;;;;;;2.00;1.80;;;4.40;41.70;;;;;;10387480;28;20606;-68
2021/12/08 01:02:38;;;;;;;1.77;1.53;;;4.40;41.60;;;;;;10389312;28;20762;-68
2021/12/08 01:07:45;;;;;;;1.63;1.53;;;4.40;41.50;;;;;;10387648;28;20240;-68
2021/12/08 01:12:48;;;;;;;1.60;1.50;;;4.40;41.40;;;;;;10389009;28;20242;-69
2021/12/08 01:17:51;;;;;;;1.60;1.50;;;4.40;41.50;;;;;;10385793;28;20305;-68
2021/12/08 01:22:56;;;;;;;2.27;1.50;;;4.50;41.50;;;;;;10384952;28;20596;-68
2021/12/08 01:28:00;;;;;;;3.40;1.70;;;4.50;41.20;;;;;;10386116;28;20236;-69
2021/12/08 01:33:04;;;;;;;1.83;1.50;;;4.50;41.20;;;;;;10383054;28;20770;-68
2021/12/08 01:38:08;;;;;;;1.73;1.47;;;4.50;41.40;;;;;;10390718;28;20234;-68
2021/12/08 01:43:24;;;;;;;1.83;1.33;;;4.50;41.30;;;;;;10382458;28;20534;-69
2021/12/08 01:48:30;;;;;;;1.43;1.30;;;4.50;41.40;;;;;;10391700;28;20233;-68
2021/12/08 01:53:34;;;;;;;1.77;1.67;;;4.50;41.40;;;;;;10384358;28;20240;-68
2021/12/08 01:58:39;;;;;;;1.50;1.40;;;4.60;41.20;;;;;;10382317;28;20245;-69
2021/12/08 02:03:43;;;;;;;1.77;1.50;;;4.50;41.20;;;;;;10387726;28;20233;-68
2021/12/08 02:08:51;;;;;;;1.73;1.40;;;4.50;41.10;;;;;;10382278;28;20244;-68
2021/12/08 02:14:00;;;;;;;1.77;1.50;;;4.50;41.20;;;;;;10387115;28;20242;-69
2021/12/08 02:19:05;;;;;;;1.90;1.63;;;4.50;41.30;;;;;;10381680;28;20246;-69
2021/12/08 02:24:12;;;;;;;1.67;1.50;;;4.50;41.20;;;;;;10388513;28;20253;-69
2021/12/08 02:29:20;;;;;;;2.20;1.70;;;4.50;41.10;;;;;;10381794;28;20233;-68
2021/12/08 02:50:43;;;;;;;1.77;1.67;;;4.40;41.20;;;;;;10394065;28;20241;-68
2021/12/08 02:55:48;;;;;;;1.97;1.80;;;4.40;41.10;;;;;;10390925;28;20234;-69
2021/12/08 03:00:55;;;;;;;1.80;1.70;;;4.40;41.20;;;;;;10391800;28;20226;-69
2021/12/08 03:05:59;;;;;;;1.97;1.50;;;4.40;41.30;;;;;;10393197;28;20349;-68
2021/12/08 03:11:04;;;;;;;2.13;1.77;;;4.40;41.40;;;;;;10398137;28;20214;-69
2021/12/08 03:16:08;;;;;;;1.67;1.57;;;4.40;41.10;;;;;;10392863;28;20238;-68
2021/12/08 03:21:11;;;;;;;2.00;1.60;;;4.40;41.20;;;;;;10394258;28;20634;-68
2021/12/08 03:26:19;;;;;;;1.53;1.43;;;4.40;41.40;;;;;;10393553;28;20229;-68
2021/12/08 03:31:29;;;;;;;2.43;1.47;;;4.40;41.40;;;;;;10394907;28;20234;-68
2021/12/08 03:36:32;;;;;;;2.10;1.90;;;4.40;41.30;;;;;;10389860;28;20648;-68
2021/12/08 03:41:36;;;;;;;2.33;1.77;;;4.40;41.50;;;;;;10397463;28;20226;-68
2021/12/08 03:46:42;;;;;;;1.87;1.50;;;4.40;41.60;;;;;;10390823;28;20238;-68
2021/12/08 03:51:45;;;;;;;1.50;1.40;;;4.50;41.80;;;;;;10388961;28;20232;-68
2021/12/08 03:56:50;;;;;;;1.83;1.67;;;4.50;41.80;;;;;;10390829;28;20616;-69
2021/12/08 04:01:53;;;;;;;2.10;1.67;;;4.50;41.70;;;;;;10388804;28;20233;-68
2021/12/08 04:07:02;;;;;;;2.37;1.63;;;4.50;41.70;;;;;;10383807;28;20332;-68
2021/12/08 04:12:08;;;;;;;1.90;1.70;;;4.60;41.70;;;;;;10392516;28;20234;-68
2021/12/08 04:17:16;;;;;;;1.83;1.73;;;4.60;41.80;;;;;;10390100;28;20244;-68
2021/12/08 04:22:22;;;;;;;2.27;1.90;;;4.60;41.70;;;;;;10390917;28;20711;-69
2021/12/08 04:27:29;;;;;;;2.47;1.80;;;4.60;41.70;;;;;;10387783;28;20244;-68
2021/12/08 04:32:34;;;;;;;3.73;2.00;;;4.60;41.70;;;;;;10391234;28;20229;-69
2021/12/08 04:37:44;;;;;;;1.77;1.67;;;4.60;41.70;;;;;;10396189;28;20237;-68
2021/12/08 04:43:00;;;;;;;2.13;1.83;;;4.60;41.60;;;;;;10389661;28;20231;-68
2021/12/08 04:48:17;;;;;;;3.77;2.10;;;4.60;41.70;;;;;;10389793;28;20237;-69
2021/12/08 04:53:36;;;;;;;1.90;1.80;;;4.60;41.70;;;;;;10387256;28;20263;-68
2021/12/08 05:04:26;;;;;;;2.03;1.73;;;4.70;41.90;;;;;;10387137;28;20277;-68
2021/12/08 05:09:33;;;;;;;3.13;2.00;;;4.70;41.80;;;;;;10390568;28;20237;-69
2021/12/08 05:14:41;;;;;;;2.20;2.00;;;4.70;41.90;;;;;;10387508;28;20233;-66
2021/12/08 05:19:48;;;;;;;2.00;1.83;;;4.70;41.90;;;;;;10387237;28;20598;-67
2021/12/08 05:24:54;;;;;;;3.43;2.00;;;4.80;42.10;;;;;;10383562;28;20239;-66
2021/12/08 05:30:05;;;;;;;2.47;2.27;;;4.80;42.10;;;;;;10386402;28;20226;-67
2021/12/08 05:35:12;;;;;;;2.30;2.10;;;4.80;42.00;;;;;;10383962;28;20249;-66
2021/12/08 05:40:20;;;;;;;2.97;2.67;;;4.80;42.00;;;;;;10383240;28;20240;-66
2021/12/08 05:45:25;;;;;;;2.70;2.47;;;4.80;41.90;;;;;;10392058;28;20241;-67
2021/12/08 05:50:32;;;;;;;3.27;2.87;;;4.80;42.10;;;;;;10388960;28;20237;-66
2021/12/08 05:55:38;;;;;;;2.67;2.47;;;4.80;42.00;;;;;;10383327;28;20230;-66
2021/12/08 06:00:47;;;;;;;7.73;6.00;;;4.90;42.10;;;;;;10381682;28;20241;-66
2021/12/08 06:05:52;;;;;;;5.63;4.97;;;4.80;41.90;;;;;;10379499;28;20233;-69
2021/12/08 06:10:57;;;;;;;7.00;4.17;;;4.80;42.20;;;;;;10378805;28;20244;-71
2021/12/08 06:16:03;;;;;;;5.23;4.63;;;4.80;43.10;;;;;;10381589;28;20249;-68
2021/12/08 06:21:10;;;;;;;6.07;4.63;;;4.90;44.30;;;;;;10397895;28;20522;-68
2021/12/08 06:26:16;;;;;;;4.03;3.53;;;5.10;43.50;;;;;;10391914;28;22056;-68
2021/12/08 06:31:23;;;;;;;3.30;3.00;;;5.20;42.90;;;;;;10393631;28;20245;-68
2021/12/08 06:36:30;;;;;;;3.40;2.90;;;5.20;42.20;;;;;;10398184;28;20244;-68
2021/12/08 06:41:36;;;;;;;2.50;2.30;;;5.20;41.70;;;;;;10395782;28;20225;-70
2021/12/08 06:46:42;;;;;;;6.50;2.80;;;5.20;41.70;;;;;;10395452;28;20242;-68
2021/12/08 06:51:49;;;;;;;3.20;2.83;;;5.10;41.50;;;;;;10393741;28;20256;-68
2021/12/08 06:56:57;;;;;;;2.40;2.20;;;5.00;41.50;;;;;;10391828;28;20241;-68
2021/12/08 07:02:09;;;;;;;2.50;2.30;;;5.00;41.60;;;;;;10390356;28;20230;-68
2021/12/08 07:07:16;;;;;;;2.60;2.40;;;5.00;41.60;;;;;;10391581;28;20686;-70
2021/12/08 07:12:22;;;;;;;3.07;2.77;;;4.90;41.80;;;;;;10393107;28;20265;-69
2021/12/08 07:17:30;;;;;;;2.97;2.50;;;4.90;41.90;;;;;;10392359;28;20245;-69
2021/12/08 07:22:34;;;;;;;3.30;2.63;;;4.90;41.80;;;;;;10389065;28;20237;-68
2021/12/08 07:27:38;;;;;;;2.37;2.17;;;4.80;41.90;;;;;;10395341;28;20244;-69
2021/12/08 07:32:43;;;;;;;2.20;2.00;;;4.70;42.00;;;;;;10394323;28;20234;-68
2021/12/08 07:37:46;;;;;;;3.57;2.37;;;4.70;42.70;;;;;;10389446;28;20614;-69
2021/12/08 07:42:54;;;;;;;3.17;2.20;;;4.60;42.00;;;;;;10390243;28;20239;-68
2021/12/08 07:48:00;;;;;;;3.20;1.93;;;4.70;42.20;;;;;;10388697;28;20230;-68
2021/12/08 07:53:05;;;;;;;25.60;14.33;;;4.50;42.30;;;;;;10387373;28;20230;-70
2021/12/08 07:58:12;;;;;;;8.83;6.00;;;4.50;42.30;;;;;;10391029;28;20236;-70
2021/12/08 08:03:20;;;;;;;3.73;2.90;;;4.50;42.30;;;;;;10391447;28;20669;-69
2021/12/08 08:08:25;;;;;;;4.47;2.70;;;4.60;42.70;;;;;;10389136;28;20245;-69
2021/12/08 08:13:30;;;;;;;3.10;2.80;;;4.50;42.70;;;;;;10390951;28;20587;-69
2021/12/08 08:18:39;;;;;;;2.70;2.30;;;4.50;42.60;;;;;;10395024;28;20283;-69
2021/12/08 08:23:44;;;;;;;3.37;2.50;;;4.60;42.90;;;;;;10394744;28;20230;-70
2021/12/08 08:28:51;;;;;;;3.03;2.73;;;4.50;42.80;;;;;;10390973;28;20241;-70
2021/12/08 08:33:56;;;;;;;3.83;2.70;;;4.60;43.10;;;;;;10396434;28;20721;-66
2021/12/08 08:39:04;;;;;;;2.63;2.43;;;4.50;43.10;;;;;;10390422;28;20781;-66
2021/12/08 08:44:10;;;;;;;3.33;2.40;;;4.60;43.10;;;;;;10376848;28;20218;-67
2021/12/08 08:49:22;;;;;;;3.00;2.70;;;4.60;43.20;;;;;;10391240;28;20515;-67
2021/12/08 08:54:27;;;;;;;3.10;2.77;;;4.70;43.50;;;;;;10392145;28;20465;-67
2021/12/08 08:59:34;;;;;;;3.67;3.10;;;4.80;43.40;;;;;;10388902;28;20243;-67
2021/12/08 09:04:44;;;;;;;4.10;3.70;;;5.00;43.60;;;;;;10392864;28;20222;-67
2021/12/08 09:09:47;;;;;;;3.90;2.97;;;4.90;43.80;;;;;;10391248;28;20611;-67
2021/12/08 09:14:54;;;;;;;4.20;2.80;;;5.00;43.50;;;;;;10385340;28;20246;-68
2021/12/08 09:20:06;;;;;;;4.13;3.30;;;5.00;43.60;;;;;;10384352;28;20233;-68
2021/12/08 09:25:15;;;;;;;3.33;3.03;;;5.10;43.60;;;;;;10387761;28;20222;-68
2021/12/08 09:30:22;;;;;;;3.03;2.83;;;5.20;43.50;;;;;;10391434;28;20283;-67
2021/12/08 09:35:29;;;;;;;3.40;3.10;;;5.20;43.30;;;;;;10389232;28;20234;-69
2021/12/08 09:40:37;;;;;;;3.77;3.30;;;5.20;43.10;;;;;;10387680;28;20238;-68
2021/12/08 09:45:47;;;;;;;3.17;2.97;;;5.30;43.00;;;;;;10390493;28;20233;-68
2021/12/08 09:50:51;;;;;;;3.33;2.67;;;5.20;43.30;;;;;;10385832;28;20726;-68
2021/12/08 09:55:56;;;;;;;3.43;3.00;;;5.30;43.40;;;;;;10385084;28;20603;-70
2021/12/08 10:01:02;;;;;;;3.00;2.70;;;5.30;43.40;;;;;;10391550;28;20229;-70
2021/12/08 10:06:09;;;;;;;3.93;3.40;;;5.40;43.50;;;;;;10390424;28;20775;-71
2021/12/08 10:11:13;;;;;;;3.93;3.50;;;5.40;43.70;;;;;;10391240;28;20217;-68
2021/12/08 10:16:16;;;;;;;4.50;3.40;;;5.50;44.70;;;;;;10381109;28;20225;-68
2021/12/08 10:21:21;;;;;;;3.20;2.90;;;5.60;44.30;;;;;;10384869;28;20226;-68
2021/12/08 10:26:25;;;;;;;3.37;3.07;;;5.70;44.10;;;;;;10386337;28;21246;-71
2021/12/08 10:31:31;;;;;;;3.47;3.17;;;5.80;43.90;;;;;;10385842;28;20236;-71
2021/12/08 10:36:46;;;;;;;4.20;3.30;;;5.80;43.70;;;;;;10385466;28;20676;-71
2021/12/08 10:41:58;;;;;;;3.33;2.90;;;5.80;43.60;;;;;;10391838;28;20742;-71
2021/12/08 10:47:19;;;;;;;3.40;2.97;;;5.80;43.60;;;;;;10386905;28;20766;-71
2021/12/08 10:57:47;;;;;;;4.30;3.90;;;5.80;43.40;;;;;;10387703;28;20229;-71
2021/12/08 11:02:52;;;;;;;5.37;4.87;;;5.80;43.40;;;;;;10386463;28;20226;-71
2021/12/08 11:08:02;;;;;;;5.03;4.53;;;5.80;43.50;;;;;;10390566;28;20261;-71
2021/12/08 11:13:07;;;;;;;5.23;4.60;;;5.80;43.90;;;;;;10393184;28;20224;-71
2021/12/08 11:18:17;;;;;;;4.77;4.37;;;5.80;43.70;;;;;;10391940;28;20790;-71
2021/12/08 11:23:40;;;;;;;5.33;4.83;;;5.80;43.80;;;;;;10395080;28;20249;-73
2021/12/08 11:28:44;;;;;;;5.10;4.70;;;5.80;44.00;;;;;;10394698;28;20739;-73
2021/12/08 11:33:59;;;;;;;5.13;4.73;;;5.80;43.70;;;;;;10396185;28;20272;-73
2021/12/08 11:39:10;;;;;;;4.70;4.30;;;5.80;43.90;;;;;;10394099;28;20320;-72
2021/12/08 11:44:17;;;;;;;5.60;5.10;;;5.80;44.10;;;;;;10391754;28;20226;-72
2021/12/08 11:49:35;;;;;;;5.50;5.03;;;5.80;44.00;;;;;;10393690;28;20222;-73
2021/12/08 11:54:47;;;;;;;5.67;4.80;;;5.90;44.00;;;;;;10395713;28;20241;-69
2021/12/08 12:00:03;;;;;;;6.53;5.00;;;5.90;44.20;;;;;;10389858;28;20230;-69
2021/12/08 12:05:09;;;;;;;20.00;18.13;;;5.90;44.50;;;;;;10386185;28;20232;-73
2021/12/08 12:10:16;;;;;;;7.93;7.23;;;5.90;44.00;;;;;;10393559;28;20233;-73
2021/12/08 12:15:22;;;;;;;6.97;6.37;;;5.90;44.00;;;;;;10388834;28;20230;-73
2021/12/08 12:20:31;;;;;;;6.70;6.00;;;6.00;43.90;;;;;;10390074;28;20357;-73
2021/12/08 12:26:06;;;;;;;6.20;5.60;;;5.90;43.80;;;;;;10391153;28;20260;-68
2021/12/08 12:31:19;;;;;;;6.13;5.57;;;5.90;44.30;;;;;;10393071;28;20218;-73
2021/12/08 12:36:27;;;;;;;5.13;4.73;;;5.90;44.10;;;;;;10386018;28;20295;-73
2021/12/08 12:41:32;;;;;;;5.73;5.23;;;5.90;44.10;;;;;;10392724;28;20661;-73
2021/12/08 12:46:36;;;;;;;5.90;5.30;;;5.90;44.20;;;;;;10386762;28;20277;-74
2021/12/08 12:51:57;;;;;;;5.97;5.47;;;5.90;44.10;;;;;;10391869;28;20245;-74
2021/12/08 12:57:03;;;;;;;5.80;5.27;;;5.90;44.50;;;;;;10389841;28;20236;-74
2021/12/08 13:02:08;;;;;;;5.87;5.33;;;6.00;44.30;;;;;;10386976;28;20252;-73
2021/12/08 13:07:12;;;;;;;6.37;5.77;;;6.00;44.20;;;;;;10384637;28;20237;-73
2021/12/08 13:12:19;;;;;;;6.87;6.17;;;6.00;44.10;;;;;;10380156;28;20601;-73
2021/12/08 13:17:25;;;;;;;7.50;6.77;;;6.00;44.40;;;;;;10340010;28;20231;-73
2021/12/08 13:23:01;;;;;;;8.20;7.30;;;6.00;44.20;;;;;;10366169;28;20242;-73
2021/12/08 13:28:16;;;;;;;8.17;7.47;;;6.00;44.50;;;;;;10379462;28;20232;-73
2021/12/08 13:33:29;;;;;;;8.57;7.83;;;6.00;44.50;;;;;;10390506;28;20232;-73
2021/12/08 13:38:43;;;;;;;9.40;8.40;;;6.00;44.30;;;;;;10388781;28;20348;-73
2021/12/08 13:43:49;;;;;;;8.67;7.87;;;5.90;44.50;;;;;;10388909;28;20772;-72
2021/12/08 13:49:14;;;;;;;9.97;9.07;;;6.00;44.30;;;;;;10384873;28;20225;-73
2021/12/08 13:54:28;;;;;;;8.30;7.43;;;6.00;44.60;;;;;;10390589;28;20221;-72
2021/12/08 13:59:57;;;;;;;9.63;6.63;;;6.00;44.80;;;;;;10388420;28;20233;-77
2021/12/08 14:05:07;;;;;;;8.93;8.10;;;6.10;47.50;;;;;;10376826;28;20226;-73
2021/12/08 14:10:14;;;;;;;9.33;8.47;;;6.30;47.10;;;;;;10384865;28;20260;-70
2021/12/08 14:15:25;;;;;;;8.53;7.80;;;6.40;45.60;;;;;;10386733;28;20247;-70
2021/12/08 14:20:30;;;;;;;14.03;12.40;;;6.50;45.00;;;;;;10379913;28;20250;-71
2021/12/08 14:25:38;;;;;;;13.17;11.87;;;6.50;44.20;;;;;;10381045;28;20236;-71
2021/12/08 14:30:47;;;;;;;10.13;9.10;;;6.40;43.90;;;;;;10382739;28;20229;-71
2021/12/08 14:35:58;;;;;;;11.00;9.33;;;6.30;44.00;;;;;;10384702;28;20237;-72
2021/12/08 14:41:01;;;;;;;9.67;8.73;;;6.20;44.10;;;;;;10388139;28;20553;-71
2021/12/08 14:46:11;;;;;;;8.97;8.13;;;6.10;44.00;;;;;;10396243;28;20231;-72
2021/12/08 14:51:23;;;;;;;9.33;8.43;;;6.00;44.40;;;;;;10392392;28;20271;-72
2021/12/08 14:56:26;;;;;;;11.83;10.37;;;6.00;44.60;;;;;;10385486;28;20234;-72
2021/12/08 15:01:31;;;;;;;11.33;10.23;;;6.00;44.40;;;;;;10390778;28;20232;-72
2021/12/08 15:06:34;;;;;;;17.00;15.17;;;6.10;44.50;;;;;;10390645;28;20479;-68
2021/12/08 15:11:41;;;;;;;10.00;9.00;;;6.10;44.40;;;;;;10390162;28;20798;-68
2021/12/08 15:16:50;;;;;;;7.87;7.17;;;6.10;44.20;;;;;;10384931;28;20225;-68
2021/12/08 15:22:05;;;;;;;10.13;7.50;;;6.00;45.30;;;;;;10389017;28;20229;-69
2021/12/08 15:27:13;;;;;;;8.83;7.90;;;6.00;45.80;;;;;;10391086;28;20230;-73
2021/12/08 15:32:18;;;;;;;7.23;6.63;;;6.10;45.70;;;;;;10390183;28;20226;-68
2021/12/08 15:37:21;;;;;;;8.70;7.90;;;6.10;45.10;;;;;;10393115;28;20236;-71
2021/12/08 15:42:24;;;;;;;10.17;7.87;;;6.10;45.30;;;;;;10391752;28;20239;-69
2021/12/08 15:47:29;;;;;;;8.20;7.50;;;6.20;45.10;;;;;;10391107;28;20233;-69
2021/12/08 15:52:37;;;;;;;8.73;7.70;;;6.20;44.80;;;;;;10392003;28;20299;-73
2021/12/08 15:57:40;;;;;;;8.47;7.67;;;6.20;44.70;;;;;;10393406;28;20244;-73
2021/12/08 16:02:44;;;;;;;8.97;8.17;;;6.20;44.20;;;;;;10391407;28;20230;-73
2021/12/08 16:07:49;;;;;;;6.83;6.23;;;6.20;44.40;;;;;;10395515;28;20234;-73
2021/12/08 16:12:58;;;;;;;7.40;6.70;;;6.20;44.40;;;;;;10391406;28;20234;-73
2021/12/08 16:18:03;;;;;;;8.43;7.67;;;6.20;44.40;;;;;;10389055;28;20317;-70
2021/12/08 16:23:07;;;;;;;8.67;7.90;;;6.10;45.10;;;;;;10387713;28;20782;-69
2021/12/08 16:28:11;;;;;;;6.73;6.13;;;6.10;44.40;;;;;;10391222;28;20249;-69
2021/12/08 16:33:16;;;;;;;8.37;7.43;;;6.10;44.30;;;;;;10389634;28;20226;-74
2021/12/08 16:38:19;;;;;;;7.70;6.90;;;6.10;44.10;;;;;;10376205;28;20230;-73
2021/12/08 16:43:22;;;;;;;7.37;6.67;;;6.10;44.00;;;;;;10390381;28;20730;-73
2021/12/08 16:48:29;;;;;;;7.10;6.50;;;6.10;44.10;;;;;;10384889;28;20750;-73
2021/12/08 16:53:33;;;;;;;9.17;8.37;;;6.00;44.30;;;;;;10388281;28;20233;-74
2021/12/08 16:58:37;;;;;;;8.73;8.03;;;6.00;44.40;;;;;;10371495;28;20703;-74
2021/12/08 17:03:42;;;;;;;7.37;6.67;;;6.00;44.40;;;;;;10387049;28;20233;-73
2021/12/08 17:08:45;;;;;;;6.93;6.33;;;6.00;44.40;;;;;;10385941;28;20229;-72
2021/12/08 17:13:48;;;;;;;7.40;6.70;;;6.00;44.40;;;;;;10387503;28;20232;-71
2021/12/08 17:18:53;;;;;;;8.33;7.17;;;6.00;44.40;;;;;;10385266;28;20234;-74
2021/12/08 17:23:57;;;;;;;7.30;6.60;;;6.10;44.60;;;;;;10387463;28;20222;-74
2021/12/08 17:29:01;;;;;;;9.30;8.23;;;6.10;44.50;;;;;;10386993;28;20613;-74
2021/12/08 17:34:07;;;;;;;27.43;18.23;;;6.10;44.40;;;;;;10388738;28;20222;-74
2021/12/08 17:39:12;;;;;;;10.80;8.93;;;6.10;44.40;;;;;;10385597;28;20773;-72
2021/12/08 17:44:17;;;;;;;8.53;7.73;;;6.10;44.40;;;;;;10389981;28;20233;-71
2021/12/08 17:49:22;;;;;;;7.90;7.20;;;6.10;44.30;;;;;;10389808;28;20234;-71
2021/12/08 17:54:25;;;;;;;7.97;7.27;;;6.10;44.40;;;;;;10382515;28;20233;-71
2021/12/08 17:59:29;;;;;;;8.20;7.50;;;6.10;44.10;;;;;;10382809;28;20309;-71
2021/12/08 18:04:33;;;;;;;8.17;7.43;;;6.10;43.80;;;;;;10383085;28;20233;-71
2021/12/08 18:09:37;;;;;;;8.70;8.00;;;6.10;43.90;;;;;;10384804;28;20248;-69
2021/12/08 18:14:40;;;;;;;7.37;6.77;;;6.00;43.90;;;;;;10389373;28;20694;-69
2021/12/08 18:19:44;;;;;;;7.87;7.17;;;6.00;44.20;;;;;;10394727;28;20730;-68
2021/12/08 18:24:47;;;;;;;9.40;8.60;;;6.00;44.30;;;;;;10387829;28;20241;-73
2021/12/08 18:29:51;;;;;;;9.73;8.90;;;5.90;44.20;;;;;;10395522;28;20241;-74
2021/12/08 18:34:59;;;;;;;10.53;9.53;;;5.90;44.10;;;;;;10395723;28;20225;-73
2021/12/08 18:40:02;;;;;;;10.90;9.90;;;5.90;44.20;;;;;;10395234;28;20233;-69
2021/12/08 18:45:06;;;;;;;11.80;10.77;;;5.90;44.10;;;;;;10392189;28;20241;-70
2021/12/08 18:50:11;;;;;;;12.47;11.23;;;5.90;44.10;;;;;;10388375;28;20230;-70
2021/12/08 18:55:15;;;;;;;13.20;11.90;;;5.90;44.10;;;;;;10390080;28;20628;-71
2021/12/08 19:00:19;;;;;;;12.67;11.43;;;5.80;43.90;;;;;;10392391;28;20245;-71
2021/12/08 19:05:25;;;;;;;14.00;12.60;;;5.70;44.00;;;;;;10390408;28;20236;-68
2021/12/08 19:10:29;;;;;;;14.60;13.10;;;5.70;44.10;;;;;;10394589;28;20248;-70
2021/12/08 19:15:32;;;;;;;13.80;12.50;;;5.70;44.20;;;;;;10386865;28;20237;-73
2021/12/08 19:20:37;;;;;;;12.50;11.23;;;5.70;44.40;;;;;;10388117;28;20230;-71
2021/12/08 19:25:43;;;;;;;11.20;10.10;;;5.70;44.50;;;;;;10393290;28;20230;-71
2021/12/08 19:30:46;;;;;;;13.90;12.50;;;5.70;44.50;;;;;;10390233;28;20679;-71
2021/12/08 19:35:56;;;;;;;13.80;12.40;;;5.80;44.50;;;;;;10391525;28;20233;-70
2021/12/08 19:41:02;;;;;;;14.20;12.80;;;5.80;44.30;;;;;;10394801;28;20440;-70
2021/12/08 19:46:07;;;;;;;14.27;12.87;;;5.80;44.30;;;;;;10391876;28;20237;-70
2021/12/08 19:51:16;;;;;;;14.40;12.90;;;5.70;44.20;;;;;;10393527;28;20228;-70
2021/12/08 19:56:21;;;;;;;14.23;12.77;;;5.70;44.40;;;;;;10393423;28;20242;-70
2021/12/08 20:01:27;;;;;;;13.97;12.67;;;5.70;44.40;;;;;;10395413;28;20225;-70
2021/12/08 20:06:33;;;;;;;14.53;13.03;;;5.70;44.40;;;;;;10390715;28;20268;-70
2021/12/08 20:11:38;;;;;;;15.13;13.53;;;5.80;44.40;;;;;;10394761;28;20793;-70
2021/12/08 20:16:43;;;;;;;14.90;13.27;;;5.80;44.30;;;;;;10393489;28;20257;-70
2021/12/08 20:21:49;;;;;;;15.37;13.87;;;5.70;44.20;;;;;;10394754;28;20254;-70
2021/12/08 20:26:54;;;;;;;14.67;13.27;;;5.80;44.50;;;;;;10392933;28;20244;-70
2021/12/08 20:31:59;;;;;;;14.67;13.27;;;5.70;44.30;;;;;;10390902;28;20229;-70
2021/12/08 20:37:06;;;;;;;14.77;13.30;;;5.80;44.40;;;;;;10393204;28;20762;-70
2021/12/08 20:42:11;;;;;;;15.47;13.87;;;5.90;44.60;;;;;;10397083;28;20651;-70
2021/12/08 20:47:18;;;;;;;15.00;13.40;;;5.80;44.20;;;;;;10390718;28;20288;-73
2021/12/08 20:52:26;;;;;;;15.67;14.10;;;5.80;44.50;;;;;;10391880;28;20241;-73
2021/12/08 20:57:33;;;;;;;16.40;14.70;;;5.70;44.30;;;;;;10388634;28;20274;-72
2021/12/08 21:02:38;;;;;;;17.30;14.60;;;5.70;44.30;;;;;;10389256;28;20233;-73
2021/12/08 21:07:44;;;;;;;16.03;13.53;;;5.80;44.50;;;;;;10392045;28;20232;-73
2021/12/08 21:12:49;;;;;;;15.57;13.93;;;5.80;44.50;;;;;;10386318;28;20818;-73
2021/12/08 21:17:55;;;;;;;16.30;14.67;;;5.80;45.20;;;;;;10388008;28;20296;-72
2021/12/08 21:23:04;;;;;;;16.33;14.73;;;5.80;44.50;;;;;;10388844;28;20236;-73
2021/12/08 21:28:09;;;;;;;15.23;13.63;;;5.80;44.40;;;;;;10385125;28;20261;-73
2021/12/08 21:33:15;;;;;;;16.00;14.30;;;5.80;44.30;;;;;;10391131;28;20229;-73
2021/12/08 21:38:23;;;;;;;17.17;15.37;;;5.80;44.20;;;;;;10386399;28;21153;-72
2021/12/08 21:43:29;;;;;;;15.60;14.00;;;5.70;44.10;;;;;;10387473;28;20707;-73
2021/12/08 21:48:34;;;;;;;15.23;13.73;;;5.70;44.30;;;;;;10388722;28;20643;-73
2021/12/08 21:53:41;;;;;;;15.93;13.83;;;5.70;44.40;;;;;;10386176;28;20716;-72
2021/12/08 21:58:45;;;;;;;13.20;11.90;;;5.70;44.50;;;;;;10383003;28;20909;-73
2021/12/08 22:03:49;;;;;;;15.40;13.90;;;5.70;44.30;;;;;;10387866;28;20234;-73
2021/12/08 22:08:54;;;;;;;13.47;12.07;;;5.80;44.60;;;;;;10372099;28;20245;-73
2021/12/08 22:13:57;;;;;;;13.33;12.03;;;5.80;44.60;;;;;;10378100;28;20237;-73
2021/12/08 22:19:00;;;;;;;15.70;14.10;;;5.80;44.50;;;;;;10384836;28;20222;-73
2021/12/08 22:24:05;;;;;;;14.00;12.67;;;5.80;44.50;;;;;;10385237;28;20240;-72
2021/12/08 22:29:13;;;;;;;15.93;14.27;;;5.80;44.30;;;;;;10389262;28;20236;-72
2021/12/08 22:34:17;;;;;;;15.93;14.20;;;5.80;44.10;;;;;;10390839;28;20232;-72
2021/12/08 22:39:21;;;;;;;16.83;15.03;;;5.80;44.00;;;;;;10389355;28;20237;-73
2021/12/08 22:44:25;;;;;;;16.00;14.40;;;5.80;44.20;;;;;;10388512;28;20244;-72
2021/12/08 22:49:30;;;;;;;15.50;14.00;;;5.70;44.00;;;;;;10387337;28;20238;-73
2021/12/08 22:54:34;;;;;;;15.90;14.33;;;5.70;44.20;;;;;;10389170;28;20234;-73
2021/12/08 22:59:37;;;;;;;15.60;14.00;;;5.60;44.40;;;;;;10390559;28;20242;-72
2021/12/08 23:04:41;;;;;;;16.27;14.57;;;5.70;44.50;;;;;;10396146;28;20233;-72
2021/12/08 23:09:45;;;;;;;15.73;14.10;;;5.70;44.60;;;;;;10391635;28;20230;-73
2021/12/08 23:14:48;;;;;;;14.37;12.93;;;5.70;44.60;;;;;;10391924;28;20245;-72
2021/12/08 23:19:53;;;;;;;15.57;14.07;;;5.70;44.50;;;;;;10395147;28;20578;-68
2021/12/08 23:24:59;;;;;;;15.50;13.90;;;5.80;44.50;;;;;;10392246;28;20226;-68
2021/12/08 23:30:04;;;;;;;16.03;14.33;;;5.80;44.40;;;;;;10388384;28;20226;-68
2021/12/08 23:35:23;;;;;;;15.43;13.87;;;5.80;44.20;;;;;;10393202;28;20589;-67
2021/12/08 23:40:30;;;;;;;16.53;14.73;;;5.80;44.30;;;;;;10394903;28;20229;-68
2021/12/08 23:45:34;;;;;;;11.80;10.60;;;5.80;44.40;;;;;;10394860;28;20237;-68
2021/12/08 23:50:38;;;;;;;14.97;13.50;;;5.70;44.30;;;;;;10390988;28;20233;-68
2021/12/08 23:55:46;;;;;;;15.57;14.07;;;5.70;44.40;;;;;;10386083;28;20226;-68
